sensor_id;sensor_type;location;lat;lon;timestamp;temperature;humidity
29281;DHT22;25048;49.590;11.026;2023-01-19T00:00:08;-4.30;99.90
29281;DHT22;25048;49.590;11.026;2023-01-19T00:02:37;-4.30;99.90
29281;DHT22;25048;49.590;11.026;2023-01-19T00:05:05;-4.40;99.90
29281;DHT22;25048;49.590;11.026;2023-01-19T00:07:32;-4.30;99.90
29281;DHT22;25048;49.590;11.026;2023-01-19T00:10:00;-4.30;99.90
29281;DHT22;25048;49.590;11.026;2023-01-19T00:12:27;-4.30;99.90
29281;DHT22;25048;49.590;11.026;2023-01-19T00:14:55;-4.30;99.90
29281;DHT22;25048;49.590;11.026;2023-01-19T00:17:22;-4.40;99.90
29281;DHT22;25048;49.590;11.026;2023-01-19T00:19:50;-4.40;99.90
29281;DHT22;25048;49.590;11.026;2023-01-19T00:22:17;-4.50;99.90
29281;DHT22;25048;49.590;11.026;2023-01-19T00:24:45;-4.60;99.90
29281;DHT22;25048;49.590;11.026;2023-01-19T00:27:12;-4.60;99.90
29281;DHT22;25048;49.590;11.026;2023-01-19T00:29:40;-4.70;99.90
29281;DHT22;25048;49.590;11.026;2023-01-19T00:32:07;-4.70;99.90
29281;DHT22;25048;49.590;11.026;2023-01-19T00:34:35;-4.80;99.90
29281;DHT22;25048;49.590;11.026;2023-01-19T00:37:06;-4.70;99.90
29281;DHT22;25048;49.590;11.026;2023-01-19T00:39:33;-4.80;99.90
29281;DHT22;25048;49.590;11.026;2023-01-19T00:42:01;-4.80;99.90
29281;DHT22;25048;49.590;11.026;2023-01-19T00:44:46;-4.90;99.90
29281;DHT22;25048;49.590;11.026;2023-01-19T00:47:14;-4.90;99.90
29281;DHT22;25048;49.590;11.026;2023-01-19T00:49:41;-4.90;99.90
29281;DHT22;25048;49.590;11.026;2023-01-19T00:52:09;-4.90;99.90
29281;DHT22;25048;49.590;11.026;2023-01-19T00:54:36;-4.80;99.90
29281;DHT22;25048;49.590;11.026;2023-01-19T00:57:04;-4.90;99.90
29281;DHT22;25048;49.590;11.026;2023-01-19T00:59:31;-5.00;99.90
29281;DHT22;25048;49.590;11.026;2023-01-19T01:01:59;-5.00;99.90
29281;DHT22;25048;49.590;11.026;2023-01-19T01:04:27;-5.10;99.90
29281;DHT22;25048;49.590;11.026;2023-01-19T01:06:55;-5.10;99.90
29281;DHT22;25048;49.590;11.026;2023-01-19T01:09:22;-5.20;99.90
29281;DHT22;25048;49.590;11.026;2023-01-19T01:11:50;-5.20;99.90
29281;DHT22;25048;49.590;11.026;2023-01-19T01:14:17;-5.30;99.90
29281;DHT22;25048;49.590;11.026;2023-01-19T01:16:45;-5.30;99.90
29281;DHT22;25048;49.590;11.026;2023-01-19T01:19:12;-5.30;99.90
29281;DHT22;25048;49.590;11.026;2023-01-19T01:21:40;-5.40;99.90
29281;DHT22;25048;49.590;11.026;2023-01-19T01:24:08;-5.40;99.90
29281;DHT22;25048;49.590;11.026;2023-01-19T01:26:36;-5.50;99.90
29281;DHT22;25048;49.590;11.026;2023-01-19T01:29:04;-5.40;99.90
29281;DHT22;25048;49.590;11.026;2023-01-19T01:31:33;-5.50;99.90
29281;DHT22;25048;49.590;11.026;2023-01-19T01:34:01;-5.50;99.90
29281;DHT22;25048;49.590;11.026;2023-01-19T01:36:28;-5.50;99.90
29281;DHT22;25048;49.590;11.026;2023-01-19T01:38:58;-5.60;99.90
29281;DHT22;25048;49.590;11.026;2023-01-19T01:41:26;-5.60;99.90
29281;DHT22;25048;49.590;11.026;2023-01-19T01:43:56;-5.60;99.90
29281;DHT22;25048;49.590;11.026;2023-01-19T01:46:29;-5.60;99.90
29281;DHT22;25048;49.590;11.026;2023-01-19T01:49:14;-5.70;99.90
29281;DHT22;25048;49.590;11.026;2023-01-19T01:51:49;-5.70;99.90
29281;DHT22;25048;49.590;11.026;2023-01-19T01:54:28;-5.70;99.90
29281;DHT22;25048;49.590;11.026;2023-01-19T01:56:59;-5.80;99.90
29281;DHT22;25048;49.590;11.026;2023-01-19T01:59:33;-5.90;99.90
29281;DHT22;25048;49.590;11.026;2023-01-19T02:02:05;-5.90;99.90
29281;DHT22;25048;49.590;11.026;2023-01-19T02:04:53;-6.00;99.90
29281;DHT22;25048;49.590;11.026;2023-01-19T02:07:31;-6.00;99.90
29281;DHT22;25048;49.590;11.026;2023-01-19T02:10:17;-6.00;99.90
29281;DHT22;25048;49.590;11.026;2023-01-19T02:13:02;-6.10;99.90
29281;DHT22;25048;49.590;11.026;2023-01-19T02:15:51;-6.10;99.90
29281;DHT22;25048;49.590;11.026;2023-01-19T02:18:21;-6.20;99.90
29281;DHT22;25048;49.590;11.026;2023-01-19T02:21:23;-6.20;99.90
29281;DHT22;25048;49.590;11.026;2023-01-19T02:23:53;-6.20;99.90
29281;DHT22;25048;49.590;11.026;2023-01-19T02:26:35;-6.20;99.90
29281;DHT22;25048;49.590;11.026;2023-01-19T02:31:36;-6.20;99.90
29281;DHT22;25048;49.590;11.026;2023-01-19T02:34:06;-6.20;99.90
29281;DHT22;25048;49.590;11.026;2023-01-19T02:36:39;-6.30;99.90
29281;DHT22;25048;49.590;11.026;2023-01-19T02:39:06;-6.30;99.90
29281;DHT22;25048;49.590;11.026;2023-01-19T02:41:40;-6.30;99.90
29281;DHT22;25048;49.590;11.026;2023-01-19T02:44:08;-6.40;99.90
29281;DHT22;25048;49.590;11.026;2023-01-19T02:46:37;-6.40;99.90
29281;DHT22;25048;49.590;11.026;2023-01-19T02:49:06;-6.40;99.90
29281;DHT22;25048;49.590;11.026;2023-01-19T02:51:34;-6.40;99.90
29281;DHT22;25048;49.590;11.026;2023-01-19T02:56:53;-6.40;99.90
29281;DHT22;25048;49.590;11.026;2023-01-19T03:02:40;-6.50;99.90
29281;DHT22;25048;49.590;11.026;2023-01-19T03:11:09;-6.60;99.90
29281;DHT22;25048;49.590;11.026;2023-01-19T03:13:50;-6.60;99.90
29281;DHT22;25048;49.590;11.026;2023-01-19T03:16:41;-6.60;99.90
29281;DHT22;25048;49.590;11.026;2023-01-19T03:22:04;-6.60;99.90
29281;DHT22;25048;49.590;11.026;2023-01-19T03:24:35;-6.60;99.90
29281;DHT22;25048;49.590;11.026;2023-01-19T03:27:19;-6.60;99.90
29281;DHT22;25048;49.590;11.026;2023-01-19T03:29:45;-6.70;99.90
29281;DHT22;25048;49.590;11.026;2023-01-19T03:32:15;-6.80;99.90
29281;DHT22;25048;49.590;11.026;2023-01-19T03:34:44;-6.80;99.90
29281;DHT22;25048;49.590;11.026;2023-01-19T03:37:13;-6.80;99.90
29281;DHT22;25048;49.590;11.026;2023-01-19T03:39:42;-6.90;99.90
29281;DHT22;25048;49.590;11.026;2023-01-19T03:42:12;-6.90;99.90
29281;DHT22;25048;49.590;11.026;2023-01-19T03:44:41;-6.90;99.90
29281;DHT22;25048;49.590;11.026;2023-01-19T03:47:10;-6.90;99.90
29281;DHT22;25048;49.590;11.026;2023-01-19T03:49:41;-6.90;99.90
29281;DHT22;25048;49.590;11.026;2023-01-19T03:52:10;-6.90;99.90
29281;DHT22;25048;49.590;11.026;2023-01-19T03:54:38;-6.90;99.90
29281;DHT22;25048;49.590;11.026;2023-01-19T03:57:06;-6.90;99.90
29281;DHT22;25048;49.590;11.026;2023-01-19T03:59:33;-6.80;99.90
29281;DHT22;25048;49.590;11.026;2023-01-19T04:02:01;-6.80;99.90
29281;DHT22;25048;49.590;11.026;2023-01-19T04:04:29;-6.80;99.90
29281;DHT22;25048;49.590;11.026;2023-01-19T04:06:56;-6.80;99.90
29281;DHT22;25048;49.590;11.026;2023-01-19T04:09:23;-6.80;99.90
29281;DHT22;25048;49.590;11.026;2023-01-19T04:11:51;-6.80;99.90
29281;DHT22;25048;49.590;11.026;2023-01-19T04:14:19;-6.80;99.90
29281;DHT22;25048;49.590;11.026;2023-01-19T04:16:47;-6.70;99.90
29281;DHT22;25048;49.590;11.026;2023-01-19T04:19:14;-6.70;99.90
29281;DHT22;25048;49.590;11.026;2023-01-19T04:21:42;-6.60;99.90
29281;DHT22;25048;49.590;11.026;2023-01-19T04:24:10;-6.60;99.90
29281;DHT22;25048;49.590;11.026;2023-01-19T04:26:37;-6.50;99.90
29281;DHT22;25048;49.590;11.026;2023-01-19T04:29:05;-6.50;99.90
29281;DHT22;25048;49.590;11.026;2023-01-19T04:31:32;-6.60;99.90
29281;DHT22;25048;49.590;11.026;2023-01-19T04:34:01;-6.60;99.90
29281;DHT22;25048;49.590;11.026;2023-01-19T04:36:31;-6.60;99.90
29281;DHT22;25048;49.590;11.026;2023-01-19T04:38:59;-6.60;99.90
29281;DHT22;25048;49.590;11.026;2023-01-19T04:41:26;-6.60;99.90
29281;DHT22;25048;49.590;11.026;2023-01-19T04:43:54;-6.60;99.90
29281;DHT22;25048;49.590;11.026;2023-01-19T04:46:21;-6.60;99.90
29281;DHT22;25048;49.590;11.026;2023-01-19T04:48:49;-6.70;99.90
29281;DHT22;25048;49.590;11.026;2023-01-19T04:51:16;-6.70;99.90
29281;DHT22;25048;49.590;11.026;2023-01-19T04:53:44;-6.70;99.90
29281;DHT22;25048;49.590;11.026;2023-01-19T04:56:11;-6.70;99.90
29281;DHT22;25048;49.590;11.026;2023-01-19T04:58:39;-6.60;99.90
29281;DHT22;25048;49.590;11.026;2023-01-19T05:01:08;-6.60;99.90
29281;DHT22;25048;49.590;11.026;2023-01-19T05:03:36;-6.70;99.90
29281;DHT22;25048;49.590;11.026;2023-01-19T05:06:03;-6.70;99.90
29281;DHT22;25048;49.590;11.026;2023-01-19T05:08:31;-6.80;99.90
29281;DHT22;25048;49.590;11.026;2023-01-19T05:10:58;-6.80;99.90
29281;DHT22;25048;49.590;11.026;2023-01-19T05:13:26;-6.80;99.90
29281;DHT22;25048;49.590;11.026;2023-01-19T05:15:53;-6.80;99.90
29281;DHT22;25048;49.590;11.026;2023-01-19T05:18:21;-6.80;99.90
29281;DHT22;25048;49.590;11.026;2023-01-19T05:20:49;-6.80;99.90
29281;DHT22;25048;49.590;11.026;2023-01-19T05:23:16;-6.80;99.90
29281;DHT22;25048;49.590;11.026;2023-01-19T05:25:44;-6.90;99.90
29281;DHT22;25048;49.590;11.026;2023-01-19T05:28:11;-6.90;99.90
29281;DHT22;25048;49.590;11.026;2023-01-19T05:30:40;-6.90;99.90
29281;DHT22;25048;49.590;11.026;2023-01-19T05:33:08;-7.00;99.90
29281;DHT22;25048;49.590;11.026;2023-01-19T05:35:35;-7.00;99.90
29281;DHT22;25048;49.590;11.026;2023-01-19T05:38:03;-6.90;99.90
29281;DHT22;25048;49.590;11.026;2023-01-19T05:40:31;-6.80;99.90
29281;DHT22;25048;49.590;11.026;2023-01-19T05:42:58;-6.70;99.90
29281;DHT22;25048;49.590;11.026;2023-01-19T05:45:27;-6.60;99.90
29281;DHT22;25048;49.590;11.026;2023-01-19T05:47:54;-6.60;99.90
29281;DHT22;25048;49.590;11.026;2023-01-19T05:50:22;-6.60;99.90
29281;DHT22;25048;49.590;11.026;2023-01-19T05:52:50;-6.60;99.90
29281;DHT22;25048;49.590;11.026;2023-01-19T05:55:21;-6.60;99.90
29281;DHT22;25048;49.590;11.026;2023-01-19T05:57:49;-6.50;99.90
29281;DHT22;25048;49.590;11.026;2023-01-19T06:00:16;-6.50;99.90
29281;DHT22;25048;49.590;11.026;2023-01-19T06:02:44;-6.50;99.90
29281;DHT22;25048;49.590;11.026;2023-01-19T06:05:13;-6.50;99.90
29281;DHT22;25048;49.590;11.026;2023-01-19T06:07:41;-6.50;99.90
29281;DHT22;25048;49.590;11.026;2023-01-19T06:10:09;-6.50;99.90
29281;DHT22;25048;49.590;11.026;2023-01-19T06:12:38;-6.50;99.90
29281;DHT22;25048;49.590;11.026;2023-01-19T06:15:09;-6.50;99.90
29281;DHT22;25048;49.590;11.026;2023-01-19T06:17:36;-6.40;99.90
29281;DHT22;25048;49.590;11.026;2023-01-19T06:20:04;-6.30;99.90
29281;DHT22;25048;49.590;11.026;2023-01-19T06:22:32;-6.30;99.90
29281;DHT22;25048;49.590;11.026;2023-01-19T06:25:00;-6.30;99.90
29281;DHT22;25048;49.590;11.026;2023-01-19T06:27:27;-6.30;99.90
29281;DHT22;25048;49.590;11.026;2023-01-19T06:29:55;-6.40;99.90
29281;DHT22;25048;49.590;11.026;2023-01-19T06:32:22;-6.40;99.90
29281;DHT22;25048;49.590;11.026;2023-01-19T06:34:50;-6.40;99.90
29281;DHT22;25048;49.590;11.026;2023-01-19T06:37:17;-6.50;99.90
29281;DHT22;25048;49.590;11.026;2023-01-19T06:39:45;-6.50;99.90
29281;DHT22;25048;49.590;11.026;2023-01-19T06:42:12;-6.50;99.90
29281;DHT22;25048;49.590;11.026;2023-01-19T06:44:40;-6.50;99.90
29281;DHT22;25048;49.590;11.026;2023-01-19T06:47:09;-6.50;99.90
29281;DHT22;25048;49.590;11.026;2023-01-19T06:49:37;-6.50;99.90
29281;DHT22;25048;49.590;11.026;2023-01-19T06:52:04;-6.50;99.90
29281;DHT22;25048;49.590;11.026;2023-01-19T06:54:32;-6.50;99.90
29281;DHT22;25048;49.590;11.026;2023-01-19T06:56:59;-6.40;99.90
29281;DHT22;25048;49.590;11.026;2023-01-19T06:59:27;-6.40;99.90
29281;DHT22;25048;49.590;11.026;2023-01-19T07:01:54;-6.30;99.90
29281;DHT22;25048;49.590;11.026;2023-01-19T07:04:22;-6.30;99.90
29281;DHT22;25048;49.590;11.026;2023-01-19T07:06:49;-6.30;99.90
29281;DHT22;25048;49.590;11.026;2023-01-19T07:09:17;-6.40;99.90
29281;DHT22;25048;49.590;11.026;2023-01-19T07:11:46;-6.40;99.90
29281;DHT22;25048;49.590;11.026;2023-01-19T07:14:14;-6.40;99.90
29281;DHT22;25048;49.590;11.026;2023-01-19T07:16:42;-6.50;99.90
29281;DHT22;25048;49.590;11.026;2023-01-19T07:19:09;-6.50;99.90
29281;DHT22;25048;49.590;11.026;2023-01-19T07:21:37;-6.50;99.90
29281;DHT22;25048;49.590;11.026;2023-01-19T07:24:04;-6.50;99.90
29281;DHT22;25048;49.590;11.026;2023-01-19T07:26:32;-6.40;99.90
29281;DHT22;25048;49.590;11.026;2023-01-19T07:29:00;-6.40;99.90
29281;DHT22;25048;49.590;11.026;2023-01-19T07:31:27;-6.40;99.90
29281;DHT22;25048;49.590;11.026;2023-01-19T07:33:55;-6.40;99.90
29281;DHT22;25048;49.590;11.026;2023-01-19T07:36:23;-6.30;99.90
29281;DHT22;25048;49.590;11.026;2023-01-19T07:38:50;-6.40;99.90
29281;DHT22;25048;49.590;11.026;2023-01-19T07:41:18;-6.40;99.90
29281;DHT22;25048;49.590;11.026;2023-01-19T07:43:45;-6.40;99.90
29281;DHT22;25048;49.590;11.026;2023-01-19T07:46:13;-6.40;99.90
29281;DHT22;25048;49.590;11.026;2023-01-19T07:48:40;-6.30;99.90
29281;DHT22;25048;49.590;11.026;2023-01-19T07:51:09;-6.30;99.90
29281;DHT22;25048;49.590;11.026;2023-01-19T07:53:42;-6.20;99.90
29281;DHT22;25048;49.590;11.026;2023-01-19T07:56:10;-6.10;99.90
29281;DHT22;25048;49.590;11.026;2023-01-19T07:58:38;-6.10;99.90
29281;DHT22;25048;49.590;11.026;2023-01-19T08:01:10;-6.00;99.90
29281;DHT22;25048;49.590;11.026;2023-01-19T08:03:38;-6.00;99.90
29281;DHT22;25048;49.590;11.026;2023-01-19T08:06:06;-5.90;99.90
29281;DHT22;25048;49.590;11.026;2023-01-19T08:08:34;-5.80;99.90
29281;DHT22;25048;49.590;11.026;2023-01-19T08:11:01;-5.80;99.90
29281;DHT22;25048;49.590;11.026;2023-01-19T08:13:29;-5.70;99.90
29281;DHT22;25048;49.590;11.026;2023-01-19T08:15:56;-5.70;99.90
29281;DHT22;25048;49.590;11.026;2023-01-19T08:18:24;-5.60;99.90
29281;DHT22;25048;49.590;11.026;2023-01-19T08:20:51;-5.60;99.90
29281;DHT22;25048;49.590;11.026;2023-01-19T08:23:19;-5.50;99.90
29281;DHT22;25048;49.590;11.026;2023-01-19T08:25:46;-5.40;99.90
29281;DHT22;25048;49.590;11.026;2023-01-19T08:28:15;-5.30;99.90
29281;DHT22;25048;49.590;11.026;2023-01-19T08:30:44;-5.10;99.90
29281;DHT22;25048;49.590;11.026;2023-01-19T08:33:13;-4.90;99.90
29281;DHT22;25048;49.590;11.026;2023-01-19T08:35:46;-4.70;99.90
29281;DHT22;25048;49.590;11.026;2023-01-19T08:38:10;-4.40;99.90
29281;DHT22;25048;49.590;11.026;2023-01-19T08:40:39;-4.20;99.90
29281;DHT22;25048;49.590;11.026;2023-01-19T08:43:14;-4.00;99.90
29281;DHT22;25048;49.590;11.026;2023-01-19T08:45:40;-3.70;99.90
29281;DHT22;25048;49.590;11.026;2023-01-19T08:48:10;-3.40;99.90
29281;DHT22;25048;49.590;11.026;2023-01-19T08:50:38;-3.20;99.90
29281;DHT22;25048;49.590;11.026;2023-01-19T08:53:05;-3.00;99.90
29281;DHT22;25048;49.590;11.026;2023-01-19T08:55:34;-2.90;99.90
29281;DHT22;25048;49.590;11.026;2023-01-19T08:58:04;-2.80;99.90
29281;DHT22;25048;49.590;11.026;2023-01-19T09:00:33;-2.80;99.90
29281;DHT22;25048;49.590;11.026;2023-01-19T09:03:01;-2.80;99.90
29281;DHT22;25048;49.590;11.026;2023-01-19T09:05:30;-2.70;99.90
29281;DHT22;25048;49.590;11.026;2023-01-19T09:07:59;-2.50;99.90
29281;DHT22;25048;49.590;11.026;2023-01-19T09:10:28;-2.40;99.90
29281;DHT22;25048;49.590;11.026;2023-01-19T09:12:57;-2.20;99.90
29281;DHT22;25048;49.590;11.026;2023-01-19T09:15:25;-2.10;99.90
29281;DHT22;25048;49.590;11.026;2023-01-19T09:17:52;-1.90;99.90
29281;DHT22;25048;49.590;11.026;2023-01-19T09:20:20;-1.80;99.90
29281;DHT22;25048;49.590;11.026;2023-01-19T09:22:48;-1.70;99.90
29281;DHT22;25048;49.590;11.026;2023-01-19T09:25:16;-1.60;99.90
29281;DHT22;25048;49.590;11.026;2023-01-19T09:27:44;-1.30;99.90
29281;DHT22;25048;49.590;11.026;2023-01-19T09:30:12;-1.30;99.90
29281;DHT22;25048;49.590;11.026;2023-01-19T09:32:40;-1.10;99.90
29281;DHT22;25048;49.590;11.026;2023-01-19T09:35:08;-1.10;99.90
29281;DHT22;25048;49.590;11.026;2023-01-19T09:37:36;-1.10;99.90
29281;DHT22;25048;49.590;11.026;2023-01-19T09:40:04;-1.20;99.90
29281;DHT22;25048;49.590;11.026;2023-01-19T09:42:56;-1.30;99.90
29281;DHT22;25048;49.590;11.026;2023-01-19T09:45:38;-1.10;99.90
29281;DHT22;25048;49.590;11.026;2023-01-19T09:47:56;-0.70;99.90
29281;DHT22;25048;49.590;11.026;2023-01-19T09:50:27;-0.50;99.90
29281;DHT22;25048;49.590;11.026;2023-01-19T09:53:02;-0.40;99.90
29281;DHT22;25048;49.590;11.026;2023-01-19T09:55:27;-0.40;99.90
29281;DHT22;25048;49.590;11.026;2023-01-19T09:57:55;-0.40;99.90
29281;DHT22;25048;49.590;11.026;2023-01-19T10:00:24;-0.40;99.90
29281;DHT22;25048;49.590;11.026;2023-01-19T10:03:00;-0.30;99.90
29281;DHT22;25048;49.590;11.026;2023-01-19T10:05:33;-0.20;99.90
29281;DHT22;25048;49.590;11.026;2023-01-19T10:08:15;-0.20;99.90
29281;DHT22;25048;49.590;11.026;2023-01-19T10:10:38;-0.10;99.90
29281;DHT22;25048;49.590;11.026;2023-01-19T10:16:22;0.10;99.90
29281;DHT22;25048;49.590;11.026;2023-01-19T10:18:48;0.20;99.90
29281;DHT22;25048;49.590;11.026;2023-01-19T10:21:29;0.30;99.90
29281;DHT22;25048;49.590;11.026;2023-01-19T10:24:12;0.40;99.90
29281;DHT22;25048;49.590;11.026;2023-01-19T10:26:41;0.40;99.90
29281;DHT22;25048;49.590;11.026;2023-01-19T10:29:21;0.50;99.90
29281;DHT22;25048;49.590;11.026;2023-01-19T10:31:50;0.50;99.90
29281;DHT22;25048;49.590;11.026;2023-01-19T10:34:19;0.50;99.90
29281;DHT22;25048;49.590;11.026;2023-01-19T10:36:49;0.60;99.90
29281;DHT22;25048;49.590;11.026;2023-01-19T10:39:18;0.60;99.90
29281;DHT22;25048;49.590;11.026;2023-01-19T10:41:49;0.60;99.90
29281;DHT22;25048;49.590;11.026;2023-01-19T10:44:33;0.60;99.90
29281;DHT22;25048;49.590;11.026;2023-01-19T10:46:55;0.60;99.90
29281;DHT22;25048;49.590;11.026;2023-01-19T10:51:56;0.50;99.90
29281;DHT22;25048;49.590;11.026;2023-01-19T10:54:25;0.50;99.90
29281;DHT22;25048;49.590;11.026;2023-01-19T10:57:00;0.50;99.90
29281;DHT22;25048;49.590;11.026;2023-01-19T10:59:48;0.40;99.90
29281;DHT22;25048;49.590;11.026;2023-01-19T11:02:27;0.30;99.90
29281;DHT22;25048;49.590;11.026;2023-01-19T11:05:31;0.30;99.90
29281;DHT22;25048;49.590;11.026;2023-01-19T11:07:32;0.30;99.90
29281;DHT22;25048;49.590;11.026;2023-01-19T11:10:21;0.30;99.90
29281;DHT22;25048;49.590;11.026;2023-01-19T11:13:04;0.30;99.90
29281;DHT22;25048;49.590;11.026;2023-01-19T11:15:32;0.40;99.90
29281;DHT22;25048;49.590;11.026;2023-01-19T11:18:02;0.40;99.90
29281;DHT22;25048;49.590;11.026;2023-01-19T11:20:48;0.50;99.90
29281;DHT22;25048;49.590;11.026;2023-01-19T11:23:40;0.60;99.90
29281;DHT22;25048;49.590;11.026;2023-01-19T11:26:14;0.60;99.90
29281;DHT22;25048;49.590;11.026;2023-01-19T11:28:47;0.70;99.90
29281;DHT22;25048;49.590;11.026;2023-01-19T11:31:20;0.80;99.90
29281;DHT22;25048;49.590;11.026;2023-01-19T11:33:49;0.90;99.90
29281;DHT22;25048;49.590;11.026;2023-01-19T11:36:20;1.00;99.90
29281;DHT22;25048;49.590;11.026;2023-01-19T11:38:50;1.10;99.90
29281;DHT22;25048;49.590;11.026;2023-01-19T11:41:26;1.20;99.90
29281;DHT22;25048;49.590;11.026;2023-01-19T11:44:09;1.30;99.90
29281;DHT22;25048;49.590;11.026;2023-01-19T11:46:32;1.30;99.90
29281;DHT22;25048;49.590;11.026;2023-01-19T11:49:02;1.40;99.90
29281;DHT22;25048;49.590;11.026;2023-01-19T11:54:14;1.50;99.90
29281;DHT22;25048;49.590;11.026;2023-01-19T11:56:38;1.40;99.90
29281;DHT22;25048;49.590;11.026;2023-01-19T11:59:09;1.40;99.90
29281;DHT22;25048;49.590;11.026;2023-01-19T12:01:39;1.50;99.90
29281;DHT22;25048;49.590;11.026;2023-01-19T12:04:10;1.40;99.90
29281;DHT22;25048;49.590;11.026;2023-01-19T12:06:48;1.40;99.90
29281;DHT22;25048;49.590;11.026;2023-01-19T12:09:21;1.40;99.90
29281;DHT22;25048;49.590;11.026;2023-01-19T12:11:59;1.30;99.90
29281;DHT22;25048;49.590;11.026;2023-01-19T12:17:19;1.20;99.90
29281;DHT22;25048;49.590;11.026;2023-01-19T12:22:34;1.20;99.90
29281;DHT22;25048;49.590;11.026;2023-01-19T12:25:05;1.20;99.90
29281;DHT22;25048;49.590;11.026;2023-01-19T12:27:39;1.10;99.90
29281;DHT22;25048;49.590;11.026;2023-01-19T12:30:25;1.10;99.90
29281;DHT22;25048;49.590;11.026;2023-01-19T12:33:21;1.10;99.90
29281;DHT22;25048;49.590;11.026;2023-01-19T12:38:52;1.00;99.90
29281;DHT22;25048;49.590;11.026;2023-01-19T12:49:48;1.00;99.90
29281;DHT22;25048;49.590;11.026;2023-01-19T13:05:52;1.70;99.90
29281;DHT22;25048;49.590;11.026;2023-01-19T13:08:24;1.90;99.90
29281;DHT22;25048;49.590;11.026;2023-01-19T13:13:39;2.00;99.90
29281;DHT22;25048;49.590;11.026;2023-01-19T13:21:46;2.20;99.90
29281;DHT22;25048;49.590;11.026;2023-01-19T13:24:18;2.20;99.90
29281;DHT22;25048;49.590;11.026;2023-01-19T13:29:25;2.20;99.90
29281;DHT22;25048;49.590;11.026;2023-01-19T13:31:53;2.30;99.90
29281;DHT22;25048;49.590;11.026;2023-01-19T13:34:25;2.20;99.90
29281;DHT22;25048;49.590;11.026;2023-01-19T13:36:55;2.30;99.90
29281;DHT22;25048;49.590;11.026;2023-01-19T13:39:34;2.30;99.90
29281;DHT22;25048;49.590;11.026;2023-01-19T13:42:01;2.40;99.90
29281;DHT22;25048;49.590;11.026;2023-01-19T13:47:17;2.40;99.90
29281;DHT22;25048;49.590;11.026;2023-01-19T13:49:41;2.40;99.90
29281;DHT22;25048;49.590;11.026;2023-01-19T13:52:24;2.50;99.90
29281;DHT22;25048;49.590;11.026;2023-01-19T13:55:00;2.50;99.90
29281;DHT22;25048;49.590;11.026;2023-01-19T13:57:32;2.40;99.90
29281;DHT22;25048;49.590;11.026;2023-01-19T14:00:03;2.50;99.90
29281;DHT22;25048;49.590;11.026;2023-01-19T14:02:30;2.50;99.90
29281;DHT22;25048;49.590;11.026;2023-01-19T14:04:57;2.50;99.90
29281;DHT22;25048;49.590;11.026;2023-01-19T14:07:26;2.40;99.90
29281;DHT22;25048;49.590;11.026;2023-01-19T14:10:13;2.50;99.90
29281;DHT22;25048;49.590;11.026;2023-01-19T14:12:37;2.40;99.90
29281;DHT22;25048;49.590;11.026;2023-01-19T14:15:07;2.30;99.90
29281;DHT22;25048;49.590;11.026;2023-01-19T14:17:36;2.30;99.90
29281;DHT22;25048;49.590;11.026;2023-01-19T14:20:04;2.20;99.90
29281;DHT22;25048;49.590;11.026;2023-01-19T14:22:44;2.10;99.90
29281;DHT22;25048;49.590;11.026;2023-01-19T14:25:26;2.00;99.90
29281;DHT22;25048;49.590;11.026;2023-01-19T14:30:52;1.90;99.90
29281;DHT22;25048;49.590;11.026;2023-01-19T14:33:43;1.90;99.90
29281;DHT22;25048;49.590;11.026;2023-01-19T14:36:24;2.00;99.90
29281;DHT22;25048;49.590;11.026;2023-01-19T14:38:52;1.90;99.90
29281;DHT22;25048;49.590;11.026;2023-01-19T14:41:38;2.00;99.90
29281;DHT22;25048;49.590;11.026;2023-01-19T14:44:10;2.00;99.90
29281;DHT22;25048;49.590;11.026;2023-01-19T14:46:45;2.00;99.90
29281;DHT22;25048;49.590;11.026;2023-01-19T14:49:23;1.90;99.90
29281;DHT22;25048;49.590;11.026;2023-01-19T14:51:47;1.90;99.90
29281;DHT22;25048;49.590;11.026;2023-01-19T14:54:17;1.80;99.90
29281;DHT22;25048;49.590;11.026;2023-01-19T14:56:46;1.70;99.90
29281;DHT22;25048;49.590;11.026;2023-01-19T14:59:13;1.70;99.90
29281;DHT22;25048;49.590;11.026;2023-01-19T15:01:41;1.70;99.90
29281;DHT22;25048;49.590;11.026;2023-01-19T15:04:08;1.70;99.90
29281;DHT22;25048;49.590;11.026;2023-01-19T15:06:40;1.60;99.90
29281;DHT22;25048;49.590;11.026;2023-01-19T15:09:12;1.60;99.90
29281;DHT22;25048;49.590;11.026;2023-01-19T15:11:40;1.50;99.90
29281;DHT22;25048;49.590;11.026;2023-01-19T15:14:13;1.40;99.90
29281;DHT22;25048;49.590;11.026;2023-01-19T15:16:42;1.30;99.90
29281;DHT22;25048;49.590;11.026;2023-01-19T15:19:14;1.30;99.90
29281;DHT22;25048;49.590;11.026;2023-01-19T15:21:42;1.20;99.90
29281;DHT22;25048;49.590;11.026;2023-01-19T15:24:12;1.10;99.90
29281;DHT22;25048;49.590;11.026;2023-01-19T15:26:41;1.00;99.90
29281;DHT22;25048;49.590;11.026;2023-01-19T15:29:23;0.90;99.90
29281;DHT22;25048;49.590;11.026;2023-01-19T15:31:51;0.80;99.90
29281;DHT22;25048;49.590;11.026;2023-01-19T15:34:19;0.70;99.90
29281;DHT22;25048;49.590;11.026;2023-01-19T15:36:46;0.60;99.90
29281;DHT22;25048;49.590;11.026;2023-01-19T15:39:14;0.50;99.90
29281;DHT22;25048;49.590;11.026;2023-01-19T15:41:41;0.40;99.90
29281;DHT22;25048;49.590;11.026;2023-01-19T15:44:09;0.30;99.90
29281;DHT22;25048;49.590;11.026;2023-01-19T15:46:37;0.10;99.90
29281;DHT22;25048;49.590;11.026;2023-01-19T15:49:05;0.00;99.90
29281;DHT22;25048;49.590;11.026;2023-01-19T15:51:32;-0.20;99.90
29281;DHT22;25048;49.590;11.026;2023-01-19T15:54:00;-0.40;99.90
29281;DHT22;25048;49.590;11.026;2023-01-19T15:56:29;-0.50;99.90
29281;DHT22;25048;49.590;11.026;2023-01-19T15:58:57;-0.60;99.90
29281;DHT22;25048;49.590;11.026;2023-01-19T16:01:26;-0.70;99.90
29281;DHT22;25048;49.590;11.026;2023-01-19T16:03:58;-0.80;99.90
29281;DHT22;25048;49.590;11.026;2023-01-19T16:06:27;-0.80;99.90
29281;DHT22;25048;49.590;11.026;2023-01-19T16:08:55;-0.80;99.90
29281;DHT22;25048;49.590;11.026;2023-01-19T16:11:25;-0.80;99.90
29281;DHT22;25048;49.590;11.026;2023-01-19T16:13:53;-0.70;99.90
29281;DHT22;25048;49.590;11.026;2023-01-19T16:16:23;-0.70;99.90
29281;DHT22;25048;49.590;11.026;2023-01-19T16:18:51;-0.60;99.90
29281;DHT22;25048;49.590;11.026;2023-01-19T16:21:18;-0.60;99.90
29281;DHT22;25048;49.590;11.026;2023-01-19T16:23:46;-0.50;99.90
29281;DHT22;25048;49.590;11.026;2023-01-19T16:26:25;-0.50;99.90
29281;DHT22;25048;49.590;11.026;2023-01-19T16:28:58;-0.40;99.90
29281;DHT22;25048;49.590;11.026;2023-01-19T16:31:27;-0.30;99.90
29281;DHT22;25048;49.590;11.026;2023-01-19T16:33:55;-0.30;99.90
29281;DHT22;25048;49.590;11.026;2023-01-19T16:36:25;-0.30;99.90
29281;DHT22;25048;49.590;11.026;2023-01-19T16:38:56;-0.20;99.90
29281;DHT22;25048;49.590;11.026;2023-01-19T16:41:23;-0.20;99.90
29281;DHT22;25048;49.590;11.026;2023-01-19T16:43:51;-0.20;99.90
29281;DHT22;25048;49.590;11.026;2023-01-19T16:46:22;-0.20;99.90
29281;DHT22;25048;49.590;11.026;2023-01-19T16:48:50;-0.20;99.90
29281;DHT22;25048;49.590;11.026;2023-01-19T16:51:18;-0.10;99.90